sensor_id;sensor_type;location;lat;lon;timestamp;pressure;altitude;pressure_sealevel;temperature;humidity
77086;BME280;66014;53.134;18.006;2023-05-10T00:00:54;101439.15;;;10.68;42.74
77086;BME280;66014;53.134;18.006;2023-05-10T00:03:20;101436.67;;;10.66;42.76
77086;BME280;66014;53.134;18.006;2023-05-10T00:05:47;101435.96;;;10.64;42.80
77086;BME280;66014;53.134;18.006;2023-05-10T00:08:13;101437.53;;;10.63;42.63
77086;BME280;66014;53.134;18.006;2023-05-10T00:10:39;101436.48;;;10.61;42.90
77086;BME280;66014;53.134;18.006;2023-05-10T00:13:07;101435.21;;;10.60;42.86
77086;BME280;66014;53.134;18.006;2023-05-10T00:15:34;101437.67;;;10.58;42.91
77086;BME280;66014;53.134;18.006;2023-05-10T00:18:01;101435.92;;;10.56;42.77
77086;BME280;66014;53.134;18.006;2023-05-10T00:20:29;101433.39;;;10.55;42.72
77086;BME280;66014;53.134;18.006;2023-05-10T00:22:56;101430.06;;;10.55;42.84
77086;BME280;66014;53.134;18.006;2023-05-10T00:25:22;101432.39;;;10.53;42.99
77086;BME280;66014;53.134;18.006;2023-05-10T00:27:49;101426.84;;;10.51;42.80
77086;BME280;66014;53.134;18.006;2023-05-10T00:30:16;101422.38;;;10.51;42.90
77086;BME280;66014;53.134;18.006;2023-05-10T00:32:42;101423.45;;;10.50;43.19
77086;BME280;66014;53.134;18.006;2023-05-10T00:35:09;101420.49;;;10.48;43.05
77086;BME280;66014;53.134;18.006;2023-05-10T00:37:36;101418.21;;;10.46;43.20
77086;BME280;66014;53.134;18.006;2023-05-10T00:40:03;101416.44;;;10.42;43.28
77086;BME280;66014;53.134;18.006;2023-05-10T00:42:31;101413.54;;;10.38;43.63
77086;BME280;66014;53.134;18.006;2023-05-10T00:44:57;101413.27;;;10.32;43.72
77086;BME280;66014;53.134;18.006;2023-05-10T00:47:27;101411.77;;;10.28;43.71
77086;BME280;66014;53.134;18.006;2023-05-10T00:49:54;101412.84;;;10.24;43.69
77086;BME280;66014;53.134;18.006;2023-05-10T00:52:22;101411.25;;;10.21;43.82
77086;BME280;66014;53.134;18.006;2023-05-10T00:54:51;101408.77;;;10.17;43.92
77086;BME280;66014;53.134;18.006;2023-05-10T00:57:19;101406.70;;;10.17;44.07
77086;BME280;66014;53.134;18.006;2023-05-10T00:59:46;101404.97;;;10.16;44.28
77086;BME280;66014;53.134;18.006;2023-05-10T01:02:12;101402.77;;;10.13;44.36
77086;BME280;66014;53.134;18.006;2023-05-10T01:04:40;101399.56;;;10.10;44.50
77086;BME280;66014;53.134;18.006;2023-05-10T01:07:07;101403.01;;;10.06;44.72
77086;BME280;66014;53.134;18.006;2023-05-10T01:09:34;101407.59;;;10.01;44.76
77086;BME280;66014;53.134;18.006;2023-05-10T01:12:01;101407.57;;;9.98;44.84
77086;BME280;66014;53.134;18.006;2023-05-10T01:14:28;101404.02;;;9.96;44.87
77086;BME280;66014;53.134;18.006;2023-05-10T01:16:56;101402.17;;;9.93;45.05
77086;BME280;66014;53.134;18.006;2023-05-10T01:19:27;101396.50;;;9.90;45.08
77086;BME280;66014;53.134;18.006;2023-05-10T01:30:41;101390.09;;;9.66;45.97
77086;BME280;66014;53.134;18.006;2023-05-10T01:33:11;101388.70;;;9.60;46.17
77086;BME280;66014;53.134;18.006;2023-05-10T01:35:55;101387.96;;;9.55;46.31
77086;BME280;66014;53.134;18.006;2023-05-10T01:38:36;101383.52;;;9.52;46.37
77086;BME280;66014;53.134;18.006;2023-05-10T01:41:16;101382.33;;;9.48;46.45
77086;BME280;66014;53.134;18.006;2023-05-10T01:46:33;101382.73;;;9.39;46.80
77086;BME280;66014;53.134;18.006;2023-05-10T01:49:02;101379.31;;;9.36;46.78
77086;BME280;66014;53.134;18.006;2023-05-10T01:51:42;101379.77;;;9.35;46.75
77086;BME280;66014;53.134;18.006;2023-05-10T01:54:11;101379.02;;;9.36;46.72
77086;BME280;66014;53.134;18.006;2023-05-10T01:56:39;101379.49;;;9.36;46.74
77086;BME280;66014;53.134;18.006;2023-05-10T01:59:12;101376.10;;;9.36;46.81
77086;BME280;66014;53.134;18.006;2023-05-10T02:01:42;101374.73;;;9.36;46.92
77086;BME280;66014;53.134;18.006;2023-05-10T02:04:10;101372.39;;;9.34;46.96
77086;BME280;66014;53.134;18.006;2023-05-10T02:06:41;101374.27;;;9.32;47.06
77086;BME280;66014;53.134;18.006;2023-05-10T02:09:10;101367.94;;;9.28;47.21
77086;BME280;66014;53.134;18.006;2023-05-10T02:11:38;101366.69;;;9.24;47.26
77086;BME280;66014;53.134;18.006;2023-05-10T02:14:07;101360.30;;;9.19;47.60
77086;BME280;66014;53.134;18.006;2023-05-10T02:16:36;101362.15;;;9.15;47.65
77086;BME280;66014;53.134;18.006;2023-05-10T02:19:04;101358.37;;;9.10;47.77
77086;BME280;66014;53.134;18.006;2023-05-10T02:21:32;101354.55;;;9.07;47.79
77086;BME280;66014;53.134;18.006;2023-05-10T02:24:01;101352.88;;;9.05;47.94
77086;BME280;66014;53.134;18.006;2023-05-10T02:26:29;101351.67;;;9.01;48.10
77086;BME280;66014;53.134;18.006;2023-05-10T02:28:57;101347.16;;;8.98;48.17
77086;BME280;66014;53.134;18.006;2023-05-10T02:31:25;101350.02;;;8.94;48.45
77086;BME280;66014;53.134;18.006;2023-05-10T02:33:53;101346.45;;;8.91;48.10
77086;BME280;66014;53.134;18.006;2023-05-10T02:36:21;101347.14;;;8.90;48.28
77086;BME280;66014;53.134;18.006;2023-05-10T02:38:49;101347.86;;;8.87;48.52
77086;BME280;66014;53.134;18.006;2023-05-10T02:41:20;101349.69;;;8.84;48.92
77086;BME280;66014;53.134;18.006;2023-05-10T02:43:50;101349.91;;;8.80;48.78
77086;BME280;66014;53.134;18.006;2023-05-10T02:46:18;101349.98;;;8.77;48.60
77086;BME280;66014;53.134;18.006;2023-05-10T02:48:45;101353.90;;;8.75;48.90
77086;BME280;66014;53.134;18.006;2023-05-10T02:51:13;101353.71;;;8.73;48.99
77086;BME280;66014;53.134;18.006;2023-05-10T02:53:46;101349.50;;;8.71;48.78
77086;BME280;66014;53.134;18.006;2023-05-10T02:56:21;101351.10;;;8.71;49.01
77086;BME280;66014;53.134;18.006;2023-05-10T02:58:49;101351.84;;;8.69;49.09
77086;BME280;66014;53.134;18.006;2023-05-10T03:01:16;101351.71;;;8.67;49.13
77086;BME280;66014;53.134;18.006;2023-05-10T03:03:42;101351.63;;;8.66;49.32
77086;BME280;66014;53.134;18.006;2023-05-10T03:06:09;101356.11;;;8.65;49.19
77086;BME280;66014;53.134;18.006;2023-05-10T03:08:35;101356.72;;;8.64;49.47
77086;BME280;66014;53.134;18.006;2023-05-10T03:14:14;101356.49;;;8.65;49.22
77086;BME280;66014;53.134;18.006;2023-05-10T03:17:04;101357.28;;;8.66;49.38
77086;BME280;66014;53.134;18.006;2023-05-10T03:19:52;101353.40;;;8.64;49.54
77086;BME280;66014;53.134;18.006;2023-05-10T03:22:38;101353.49;;;8.63;49.63
77086;BME280;66014;53.134;18.006;2023-05-10T03:25:07;101352.19;;;8.62;49.82
77086;BME280;66014;53.134;18.006;2023-05-10T03:27:37;101350.13;;;8.59;49.86
77086;BME280;66014;53.134;18.006;2023-05-10T03:30:13;101350.18;;;8.57;50.18
77086;BME280;66014;53.134;18.006;2023-05-10T03:32:39;101350.98;;;8.54;50.06
77086;BME280;66014;53.134;18.006;2023-05-10T03:35:08;101349.42;;;8.54;50.01
77086;BME280;66014;53.134;18.006;2023-05-10T03:37:35;101347.33;;;8.54;49.83
77086;BME280;66014;53.134;18.006;2023-05-10T03:40:02;101351.66;;;8.55;49.96
77086;BME280;66014;53.134;18.006;2023-05-10T03:42:29;101349.41;;;8.54;50.19
77086;BME280;66014;53.134;18.006;2023-05-10T03:44:56;101350.33;;;8.54;50.13
77086;BME280;66014;53.134;18.006;2023-05-10T03:47:22;101349.39;;;8.54;49.98
77086;BME280;66014;53.134;18.006;2023-05-10T03:49:49;101352.32;;;8.57;49.96
77086;BME280;66014;53.134;18.006;2023-05-10T03:52:15;101348.42;;;8.59;49.85
77086;BME280;66014;53.134;18.006;2023-05-10T03:54:43;101346.90;;;8.58;50.05
77086;BME280;66014;53.134;18.006;2023-05-10T03:57:09;101341.36;;;8.57;50.05
77086;BME280;66014;53.134;18.006;2023-05-10T03:59:36;101336.86;;;8.56;49.85
77086;BME280;66014;53.134;18.006;2023-05-10T04:02:02;101342.90;;;8.57;49.75
77086;BME280;66014;53.134;18.006;2023-05-10T04:04:29;101341.45;;;8.58;49.69
77086;BME280;66014;53.134;18.006;2023-05-10T04:06:55;101347.33;;;8.57;49.60
77086;BME280;66014;53.134;18.006;2023-05-10T04:09:22;101344.95;;;8.58;49.61
77086;BME280;66014;53.134;18.006;2023-05-10T04:11:48;101351.23;;;8.59;49.51
77086;BME280;66014;53.134;18.006;2023-05-10T04:14:15;101346.17;;;8.60;49.47
77086;BME280;66014;53.134;18.006;2023-05-10T04:16:42;101348.98;;;8.62;49.50
77086;BME280;66014;53.134;18.006;2023-05-10T04:19:09;101345.58;;;8.62;49.45
77086;BME280;66014;53.134;18.006;2023-05-10T04:21:36;101346.36;;;8.64;49.38
77086;BME280;66014;53.134;18.006;2023-05-10T04:24:02;101345.28;;;8.67;49.23
77086;BME280;66014;53.134;18.006;2023-05-10T04:26:29;101339.73;;;8.72;49.25
77086;BME280;66014;53.134;18.006;2023-05-10T04:28:56;101342.61;;;8.75;49.30
77086;BME280;66014;53.134;18.006;2023-05-10T04:31:22;101342.77;;;8.77;49.17
77086;BME280;66014;53.134;18.006;2023-05-10T04:33:49;101342.37;;;8.79;49.25
77086;BME280;66014;53.134;18.006;2023-05-10T04:36:16;101340.86;;;8.81;49.11
77086;BME280;66014;53.134;18.006;2023-05-10T04:38:42;101340.55;;;8.85;49.00
77086;BME280;66014;53.134;18.006;2023-05-10T04:41:10;101334.73;;;8.88;49.03
77086;BME280;66014;53.134;18.006;2023-05-10T04:43:38;101337.63;;;8.91;49.03
77086;BME280;66014;53.134;18.006;2023-05-10T04:46:05;101334.90;;;8.94;49.01
77086;BME280;66014;53.134;18.006;2023-05-10T04:48:32;101340.06;;;8.97;48.81
77086;BME280;66014;53.134;18.006;2023-05-10T04:50:59;101337.49;;;9.01;48.82
77086;BME280;66014;53.134;18.006;2023-05-10T04:53:25;101335.30;;;9.07;48.74
77086;BME280;66014;53.134;18.006;2023-05-10T04:55:52;101340.68;;;9.13;48.59
77086;BME280;66014;53.134;18.006;2023-05-10T04:58:19;101339.65;;;9.20;48.52
77086;BME280;66014;53.134;18.006;2023-05-10T05:00:45;101339.88;;;9.27;48.50
77086;BME280;66014;53.134;18.006;2023-05-10T05:03:12;101338.28;;;9.34;48.44
77086;BME280;66014;53.134;18.006;2023-05-10T05:05:38;101338.14;;;9.40;48.35
77086;BME280;66014;53.134;18.006;2023-05-10T05:08:05;101330.44;;;9.48;48.19
77086;BME280;66014;53.134;18.006;2023-05-10T05:10:32;101329.22;;;9.57;48.04
77086;BME280;66014;53.134;18.006;2023-05-10T05:13:00;101330.75;;;9.66;47.97
77086;BME280;66014;53.134;18.006;2023-05-10T05:15:26;101328.58;;;9.73;47.91
77086;BME280;66014;53.134;18.006;2023-05-10T05:17:53;101323.97;;;9.80;47.81
77086;BME280;66014;53.134;18.006;2023-05-10T05:20:20;101326.79;;;9.89;47.77
77086;BME280;66014;53.134;18.006;2023-05-10T05:22:46;101326.17;;;9.98;47.63
77086;BME280;66014;53.134;18.006;2023-05-10T05:25:13;101322.71;;;10.07;47.51
77086;BME280;66014;53.134;18.006;2023-05-10T05:27:39;101322.06;;;10.17;47.38
77086;BME280;66014;53.134;18.006;2023-05-10T05:30:06;101325.10;;;10.29;47.13
77086;BME280;66014;53.134;18.006;2023-05-10T05:32:33;101320.29;;;10.39;46.87
77086;BME280;66014;53.134;18.006;2023-05-10T05:35:00;101320.86;;;10.50;46.59
77086;BME280;66014;53.134;18.006;2023-05-10T05:37:26;101320.61;;;10.62;46.39
77086;BME280;66014;53.134;18.006;2023-05-10T05:39:53;101317.88;;;10.80;46.19
77086;BME280;66014;53.134;18.006;2023-05-10T05:42:21;101321.06;;;11.04;45.76
77086;BME280;66014;53.134;18.006;2023-05-10T05:44:47;101318.01;;;11.34;45.34
77086;BME280;66014;53.134;18.006;2023-05-10T05:47:14;101317.72;;;11.70;44.87
77086;BME280;66014;53.134;18.006;2023-05-10T05:49:43;101319.14;;;12.16;44.01
77086;BME280;66014;53.134;18.006;2023-05-10T05:52:12;101320.98;;;12.74;42.99
77086;BME280;66014;53.134;18.006;2023-05-10T05:54:38;101320.48;;;13.33;41.73
77086;BME280;66014;53.134;18.006;2023-05-10T05:57:05;101317.46;;;13.91;40.70
77086;BME280;66014;53.134;18.006;2023-05-10T05:59:31;101314.98;;;14.45;39.19
77086;BME280;66014;53.134;18.006;2023-05-10T06:01:58;101313.38;;;14.87;37.48
77086;BME280;66014;53.134;18.006;2023-05-10T06:04:24;101311.71;;;15.26;36.59
77086;BME280;66014;53.134;18.006;2023-05-10T06:06:51;101311.72;;;15.65;36.00
77086;BME280;66014;53.134;18.006;2023-05-10T06:09:18;101308.81;;;16.05;35.76
77086;BME280;66014;53.134;18.006;2023-05-10T06:11:44;101307.48;;;16.44;34.38
77086;BME280;66014;53.134;18.006;2023-05-10T06:14:11;101310.88;;;16.78;34.56
77086;BME280;66014;53.134;18.006;2023-05-10T06:16:38;101316.73;;;17.28;34.04
77086;BME280;66014;53.134;18.006;2023-05-10T06:19:04;101319.45;;;17.70;32.30
77086;BME280;66014;53.134;18.006;2023-05-10T06:21:31;101317.52;;;18.07;32.39
77086;BME280;66014;53.134;18.006;2023-05-10T06:23:58;101316.42;;;18.48;31.28
77086;BME280;66014;53.134;18.006;2023-05-10T06:26:24;101313.19;;;18.86;30.09
77086;BME280;66014;53.134;18.006;2023-05-10T06:28:51;101313.75;;;19.07;29.41
77086;BME280;66014;53.134;18.006;2023-05-10T06:31:17;101315.32;;;19.27;29.01
77086;BME280;66014;53.134;18.006;2023-05-10T06:33:44;101321.95;;;19.41;28.08
77086;BME280;66014;53.134;18.006;2023-05-10T06:36:11;101310.16;;;19.64;28.38
77086;BME280;66014;53.134;18.006;2023-05-10T06:38:37;101319.66;;;19.95;28.13
77086;BME280;66014;53.134;18.006;2023-05-10T06:41:04;101322.05;;;20.25;27.34
77086;BME280;66014;53.134;18.006;2023-05-10T06:43:31;101313.05;;;20.54;27.04
77086;BME280;66014;53.134;18.006;2023-05-10T06:45:57;101313.48;;;20.89;26.77
77086;BME280;66014;53.134;18.006;2023-05-10T06:48:24;101310.44;;;21.37;27.06
77086;BME280;66014;53.134;18.006;2023-05-10T06:50:50;101304.84;;;21.95;25.86
77086;BME280;66014;53.134;18.006;2023-05-10T06:53:17;101308.05;;;22.36;25.37
77086;BME280;66014;53.134;18.006;2023-05-10T06:55:44;101300.23;;;22.70;24.50
77086;BME280;66014;53.134;18.006;2023-05-10T06:58:10;101305.04;;;22.96;24.44
77086;BME280;66014;53.134;18.006;2023-05-10T07:00:37;101305.39;;;23.18;23.32
77086;BME280;66014;53.134;18.006;2023-05-10T07:03:06;101306.50;;;23.46;24.08
77086;BME280;66014;53.134;18.006;2023-05-10T07:05:33;101310.67;;;23.80;23.09
77086;BME280;66014;53.134;18.006;2023-05-10T07:08:00;101309.69;;;23.84;22.11
77086;BME280;66014;53.134;18.006;2023-05-10T07:10:27;101304.70;;;23.78;22.33
77086;BME280;66014;53.134;18.006;2023-05-10T07:12:53;101307.13;;;23.76;21.90
77086;BME280;66014;53.134;18.006;2023-05-10T07:15:20;101300.61;;;23.84;22.06
77086;BME280;66014;53.134;18.006;2023-05-10T07:17:47;101305.73;;;24.07;21.99
77086;BME280;66014;53.134;18.006;2023-05-10T07:20:13;101305.41;;;24.33;21.78
77086;BME280;66014;53.134;18.006;2023-05-10T07:22:40;101304.59;;;24.60;21.35
77086;BME280;66014;53.134;18.006;2023-05-10T07:25:07;101300.14;;;25.01;21.42
77086;BME280;66014;53.134;18.006;2023-05-10T07:27:34;101300.05;;;25.18;20.09
77086;BME280;66014;53.134;18.006;2023-05-10T07:30:00;101298.98;;;25.11;20.53
77086;BME280;66014;53.134;18.006;2023-05-10T07:32:27;101300.15;;;25.07;20.40
77086;BME280;66014;53.134;18.006;2023-05-10T07:34:54;101301.19;;;24.98;20.04
77086;BME280;66014;53.134;18.006;2023-05-10T07:37:20;101298.67;;;24.91;20.26
77086;BME280;66014;53.134;18.006;2023-05-10T07:39:47;101307.84;;;25.04;20.14
77086;BME280;66014;53.134;18.006;2023-05-10T07:42:13;101302.96;;;25.11;20.06
77086;BME280;66014;53.134;18.006;2023-05-10T07:44:40;101304.20;;;25.39;20.15
77086;BME280;66014;53.134;18.006;2023-05-10T07:47:06;101300.14;;;25.47;19.63
77086;BME280;66014;53.134;18.006;2023-05-10T07:49:33;101309.11;;;25.44;19.56
77086;BME280;66014;53.134;18.006;2023-05-10T07:52:00;101304.33;;;25.39;19.80
77086;BME280;66014;53.134;18.006;2023-05-10T07:54:27;101297.49;;;25.55;19.69
77086;BME280;66014;53.134;18.006;2023-05-10T07:56:54;101308.92;;;25.91;19.47
77086;BME280;66014;53.134;18.006;2023-05-10T07:59:20;101308.16;;;26.20;19.27
77086;BME280;66014;53.134;18.006;2023-05-10T08:01:47;101299.75;;;26.40;18.98
77086;BME280;66014;53.134;18.006;2023-05-10T08:04:13;101299.85;;;26.82;19.11
77086;BME280;66014;53.134;18.006;2023-05-10T08:06:40;101303.91;;;27.16;17.97
77086;BME280;66014;53.134;18.006;2023-05-10T08:09:08;101308.13;;;27.02;17.79
77086;BME280;66014;53.134;18.006;2023-05-10T08:11:35;101300.32;;;26.73;17.91
77086;BME280;66014;53.134;18.006;2023-05-10T08:14:02;101295.31;;;26.56;17.99
77086;BME280;66014;53.134;18.006;2023-05-10T08:16:28;101288.94;;;26.39;18.12
77086;BME280;66014;53.134;18.006;2023-05-10T08:18:55;101294.77;;;26.45;18.35
77086;BME280;66014;53.134;18.006;2023-05-10T08:21:22;101293.36;;;26.86;17.91
77086;BME280;66014;53.134;18.006;2023-05-10T08:23:48;101294.25;;;27.09;17.63
77086;BME280;66014;53.134;18.006;2023-05-10T08:26:15;101297.90;;;27.19;17.24
77086;BME280;66014;53.134;18.006;2023-05-10T08:28:42;101301.34;;;27.06;17.55
77086;BME280;66014;53.134;18.006;2023-05-10T08:31:08;101287.55;;;27.15;17.57
77086;BME280;66014;53.134;18.006;2023-05-10T08:33:35;101284.66;;;27.38;17.73
77086;BME280;66014;53.134;18.006;2023-05-10T08:36:02;101289.97;;;27.87;17.68
77086;BME280;66014;53.134;18.006;2023-05-10T08:38:29;101287.67;;;28.23;17.20
77086;BME280;66014;53.134;18.006;2023-05-10T08:40:55;101291.61;;;28.50;17.00
77086;BME280;66014;53.134;18.006;2023-05-10T08:43:29;101292.02;;;28.60;16.73
77086;BME280;66014;53.134;18.006;2023-05-10T08:45:56;101290.23;;;28.54;16.52
77086;BME280;66014;53.134;18.006;2023-05-10T08:48:29;101287.11;;;28.28;16.46
77086;BME280;66014;53.134;18.006;2023-05-10T08:50:58;101283.28;;;28.02;16.97
77086;BME280;66014;53.134;18.006;2023-05-10T08:53:26;101280.08;;;28.21;16.95
77086;BME280;66014;53.134;18.006;2023-05-10T08:55:55;101286.49;;;28.34;16.76
77086;BME280;66014;53.134;18.006;2023-05-10T08:58:21;101287.92;;;28.35;16.48
77086;BME280;66014;53.134;18.006;2023-05-10T09:00:49;101290.76;;;28.13;16.86
77086;BME280;66014;53.134;18.006;2023-05-10T09:03:20;101289.85;;;27.92;16.65
77086;BME280;66014;53.134;18.006;2023-05-10T09:05:48;101287.52;;;27.85;16.82
77086;BME280;66014;53.134;18.006;2023-05-10T09:08:15;101286.52;;;27.79;16.89
77086;BME280;66014;53.134;18.006;2023-05-10T09:10:44;101278.53;;;27.66;17.07
77086;BME280;66014;53.134;18.006;2023-05-10T09:13:14;101293.46;;;27.51;17.07
77086;BME280;66014;53.134;18.006;2023-05-10T09:15:43;101276.23;;;27.38;17.10
77086;BME280;66014;53.134;18.006;2023-05-10T09:18:10;101280.70;;;27.31;17.02
77086;BME280;66014;53.134;18.006;2023-05-10T09:20:37;101281.52;;;27.12;17.30
77086;BME280;66014;53.134;18.006;2023-05-10T09:23:04;101278.86;;;26.95;17.35
77086;BME280;66014;53.134;18.006;2023-05-10T09:25:31;101271.55;;;27.02;17.34
77086;BME280;66014;53.134;18.006;2023-05-10T09:28:00;101274.86;;;27.13;17.66
77086;BME280;66014;53.134;18.006;2023-05-10T09:30:28;101271.52;;;27.23;17.48
77086;BME280;66014;53.134;18.006;2023-05-10T09:32:57;101276.16;;;27.27;17.11
77086;BME280;66014;53.134;18.006;2023-05-10T09:35:29;101272.23;;;27.14;17.17
77086;BME280;66014;53.134;18.006;2023-05-10T09:37:59;101281.84;;;27.06;17.35
77086;BME280;66014;53.134;18.006;2023-05-10T09:40:28;101282.19;;;26.93;17.24
77086;BME280;66014;53.134;18.006;2023-05-10T09:45:26;101266.31;;;27.03;17.44
77086;BME280;66014;53.134;18.006;2023-05-10T09:47:54;101266.64;;;27.10;17.68
77086;BME280;66014;53.134;18.006;2023-05-10T09:50:21;101273.10;;;27.23;17.22
77086;BME280;66014;53.134;18.006;2023-05-10T09:55:45;101270.09;;;27.26;17.51
77086;BME280;66014;53.134;18.006;2023-05-10T09:58:13;101269.61;;;27.46;17.53
77086;BME280;66014;53.134;18.006;2023-05-10T10:00:44;101267.15;;;27.54;17.38
77086;BME280;66014;53.134;18.006;2023-05-10T10:03:15;101263.05;;;27.59;17.16
77086;BME280;66014;53.134;18.006;2023-05-10T10:05:44;101259.73;;;27.57;17.24
77086;BME280;66014;53.134;18.006;2023-05-10T10:08:11;101255.93;;;27.71;17.26
77086;BME280;66014;53.134;18.006;2023-05-10T10:10:40;101254.95;;;27.88;17.22
77086;BME280;66014;53.134;18.006;2023-05-10T10:13:07;101256.02;;;28.22;17.11
77086;BME280;66014;53.134;18.006;2023-05-10T10:15:34;101250.50;;;28.40;16.98
77086;BME280;66014;53.134;18.006;2023-05-10T10:18:02;101249.30;;;28.32;16.65
77086;BME280;66014;53.134;18.006;2023-05-10T10:20:30;101248.30;;;28.22;16.30
77086;BME280;66014;53.134;18.006;2023-05-10T10:22:56;101243.57;;;28.09;16.47
77086;BME280;66014;53.134;18.006;2023-05-10T10:25:24;101243.73;;;27.88;16.57
77086;BME280;66014;53.134;18.006;2023-05-10T10:30:40;101234.45;;;27.53;17.17
77086;BME280;66014;53.134;18.006;2023-05-10T10:33:29;101237.06;;;27.60;16.64
77086;BME280;66014;53.134;18.006;2023-05-10T10:35:59;101248.60;;;27.64;16.96
77086;BME280;66014;53.134;18.006;2023-05-10T10:38:57;101239.95;;;27.85;17.04
77086;BME280;66014;53.134;18.006;2023-05-10T10:41:39;101231.65;;;28.22;16.76
77086;BME280;66014;53.134;18.006;2023-05-10T10:49:26;101238.29;;;29.20;15.74
77086;BME280;66014;53.134;18.006;2023-05-10T10:54:53;101224.79;;;29.79;15.66
77086;BME280;66014;53.134;18.006;2023-05-10T10:57:23;101222.52;;;30.19;15.43
77086;BME280;66014;53.134;18.006;2023-05-10T10:59:49;101230.21;;;30.41;15.37
77086;BME280;66014;53.134;18.006;2023-05-10T11:02:34;101219.96;;;30.60;15.23
77086;BME280;66014;53.134;18.006;2023-05-10T11:08:32;101226.41;;;31.20;14.51
77086;BME280;66014;53.134;18.006;2023-05-10T11:13:46;101213.00;;;31.43;14.52
77086;BME280;66014;53.134;18.006;2023-05-10T11:16:19;101224.77;;;31.16;14.56
77086;BME280;66014;53.134;18.006;2023-05-10T11:19:01;101218.70;;;31.32;14.31
77086;BME280;66014;53.134;18.006;2023-05-10T11:21:30;101218.30;;;31.94;14.18
77086;BME280;66014;53.134;18.006;2023-05-10T11:23:58;101220.59;;;32.24;13.27
77086;BME280;66014;53.134;18.006;2023-05-10T11:26:30;101225.33;;;32.21;13.46
77086;BME280;66014;53.134;18.006;2023-05-10T11:28:56;101217.95;;;32.35;13.53
77086;BME280;66014;53.134;18.006;2023-05-10T11:31:24;101215.98;;;32.92;13.34
77086;BME280;66014;53.134;18.006;2023-05-10T11:33:54;101207.13;;;33.30;13.24
77086;BME280;66014;53.134;18.006;2023-05-10T11:36:24;101215.95;;;33.67;13.15
77086;BME280;66014;53.134;18.006;2023-05-10T11:38:53;101213.55;;;33.93;12.54
77086;BME280;66014;53.134;18.006;2023-05-10T11:41:21;101216.80;;;33.77;12.51
77086;BME280;66014;53.134;18.006;2023-05-10T11:43:53;101216.89;;;33.25;12.77
77086;BME280;66014;53.134;18.006;2023-05-10T11:46:21;101212.48;;;33.48;12.78
77086;BME280;66014;53.134;18.006;2023-05-10T11:48:50;101212.50;;;33.95;12.64
77086;BME280;66014;53.134;18.006;2023-05-10T11:51:24;101207.77;;;34.12;12.27
77086;BME280;66014;53.134;18.006;2023-05-10T11:53:54;101219.01;;;33.77;11.97
77086;BME280;66014;53.134;18.006;2023-05-10T11:56:22;101213.78;;;33.53;12.57
77086;BME280;66014;53.134;18.006;2023-05-10T11:58:56;101216.35;;;33.81;12.63
77086;BME280;66014;53.134;18.006;2023-05-10T12:01:25;101213.64;;;34.44;12.23
77086;BME280;66014;53.134;18.006;2023-05-10T12:03:54;101207.45;;;34.73;11.73
77086;BME280;66014;53.134;18.006;2023-05-10T12:06:21;101209.42;;;34.77;11.48
77086;BME280;66014;53.134;18.006;2023-05-10T12:08:48;101204.58;;;34.69;11.69
77086;BME280;66014;53.134;18.006;2023-05-10T12:11:18;101199.75;;;35.29;11.69
77086;BME280;66014;53.134;18.006;2023-05-10T12:13:47;101210.77;;;35.60;11.26
77086;BME280;66014;53.134;18.006;2023-05-10T12:16:16;101203.59;;;35.42;11.35
77086;BME280;66014;53.134;18.006;2023-05-10T12:18:44;101195.89;;;35.31;11.48
77086;BME280;66014;53.134;18.006;2023-05-10T12:21:11;101199.71;;;35.25;11.24
77086;BME280;66014;53.134;18.006;2023-05-10T12:23:39;101183.61;;;35.47;11.42
77086;BME280;66014;53.134;18.006;2023-05-10T12:26:06;101204.73;;;35.44;11.07
77086;BME280;66014;53.134;18.006;2023-05-10T12:28:33;101206.66;;;35.04;11.22
77086;BME280;66014;53.134;18.006;2023-05-10T12:30:59;101196.98;;;34.62;11.62
77086;BME280;66014;53.134;18.006;2023-05-10T12:33:26;101195.32;;;34.48;11.61
77086;BME280;66014;53.134;18.006;2023-05-10T12:35:54;101191.86;;;34.47;11.48
77086;BME280;66014;53.134;18.006;2023-05-10T12:38:29;101199.80;;;34.39;11.95
77086;BME280;66014;53.134;18.006;2023-05-10T12:41:01;101202.27;;;34.38;11.92
77086;BME280;66014;53.134;18.006;2023-05-10T12:43:28;101199.36;;;34.16;11.91
77086;BME280;66014;53.134;18.006;2023-05-10T12:45:56;101209.74;;;34.10;11.71
77086;BME280;66014;53.134;18.006;2023-05-10T12:48:22;101205.09;;;33.87;12.09
77086;BME280;66014;53.134;18.006;2023-05-10T12:50:49;101203.91;;;33.75;12.10
77086;BME280;66014;53.134;18.006;2023-05-10T12:53:16;101204.23;;;33.54;12.09
77086;BME280;66014;53.134;18.006;2023-05-10T12:55:43;101196.73;;;33.69;12.04
77086;BME280;66014;53.134;18.006;2023-05-10T12:58:10;101190.59;;;33.94;11.75
77086;BME280;66014;53.134;18.006;2023-05-10T13:00:37;101186.89;;;33.57;11.55
77086;BME280;66014;53.134;18.006;2023-05-10T13:03:04;101195.64;;;33.77;11.72
77086;BME280;66014;53.134;18.006;2023-05-10T13:05:32;101200.52;;;33.87;11.72
77086;BME280;66014;53.134;18.006;2023-05-10T13:07:59;101192.33;;;34.03;11.87
77086;BME280;66014;53.134;18.006;2023-05-10T13:10:28;101184.56;;;34.06;11.87
77086;BME280;66014;53.134;18.006;2023-05-10T13:12:56;101184.48;;;33.81;11.72
77086;BME280;66014;53.134;18.006;2023-05-10T13:15:23;101189.15;;;33.98;12.01
77086;BME280;66014;53.134;18.006;2023-05-10T13:17:49;101190.09;;;33.92;11.73
77086;BME280;66014;53.134;18.006;2023-05-10T13:20:16;101189.59;;;33.86;11.82
77086;BME280;66014;53.134;18.006;2023-05-10T13:22:44;101185.88;;;33.70;12.01
77086;BME280;66014;53.134;18.006;2023-05-10T13:25:11;101182.66;;;33.97;12.02